Time;durP1;ratioP1;P1;durP2;ratioP2;P2;SDS_P1;SDS_P2;PMS_P1;PMS_P2;Temp;Humidity;BMP_temperature;BMP_pressure;BME280_temperature;BME280_humidity;BME280_pressure;Samples;Min_cycle;Max_cycle;Signal;HPM_P1;HPM_P2
2022/04/23 00:00:42;;;;;;;9.93;7.22;;;;;;;;;;4928048;29;20405;-73
2022/04/23 00:03:10;;;;;;;8.65;7.78;;;;;;;;;;4929314;29;20104;-73
2022/04/23 00:05:41;;;;;;;8.68;6.72;;;;;;;;;;4925696;29;20076;-73
2022/04/23 00:08:11;;;;;;;8.88;8.07;;;;;;;;;;4929639;29;20500;-72
2022/04/23 00:10:38;;;;;;;8.20;7.40;;;;;;;;;;4929216;29;20158;-72
2022/04/23 00:13:07;;;;;;;7.72;7.03;;;;;;;;;;4928507;29;20054;-73
2022/04/23 00:15:38;;;;;;;8.48;7.00;;;;;;;;;;4927522;29;20075;-72
2022/04/23 00:18:08;;;;;;;7.15;6.35;;;;;;;;;;4929198;29;20062;-74
2022/04/23 00:20:37;;;;;;;6.35;5.75;;;;;;;;;;4928772;29;20526;-72
2022/04/23 00:23:08;;;;;;;7.63;6.72;;;;;;;;;;4926830;29;20044;-72
2022/04/23 00:25:37;;;;;;;7.70;7.00;;;;;;;;;;4930682;29;20051;-72
2022/04/23 00:28:05;;;;;;;9.40;7.95;;;;;;;;;;4928922;29;20082;-72
2022/04/23 00:30:34;;;;;;;8.23;7.43;;;;;;;;;;4921314;29;20479;-71
2022/04/23 00:33:03;;;;;;;7.53;6.82;;;;;;;;;;4918815;29;20052;-71
2022/04/23 00:35:31;;;;;;;11.00;9.13;;;;;;;;;;4918550;29;20052;-71
2022/04/23 00:38:01;;;;;;;11.45;9.05;;;;;;;;;;4918780;29;20107;-71
2022/04/23 00:40:30;;;;;;;9.32;8.00;;;;;;;;;;4918626;29;20136;-71
2022/04/23 00:42:58;;;;;;;9.82;8.93;;;;;;;;;;4918629;29;20048;-71
2022/04/23 00:45:28;;;;;;;8.95;8.10;;;;;;;;;;4918875;29;20496;-71
2022/04/23 00:47:56;;;;;;;9.48;8.68;;;;;;;;;;4918780;29;20247;-71
2022/04/23 00:50:26;;;;;;;13.27;8.07;;;;;;;;;;4918984;29;20040;-71
2022/04/23 00:53:04;;;;;;;7.90;7.20;;;;;;;;;;4918052;29;20052;-71
2022/04/23 00:55:33;;;;;;;8.50;7.72;;;;;;;;;;4918971;29;20048;-73
2022/04/23 00:58:03;;;;;;;11.50;8.38;;;;;;;;;;4918727;29;20063;-72
2022/04/23 01:00:33;;;;;;;7.15;6.55;;;;;;;;;;4918483;29;20476;-71
2022/04/23 01:03:01;;;;;;;6.93;5.97;;;;;;;;;;4918384;29;20063;-74
2022/04/23 01:05:30;;;;;;;6.05;5.55;;;;;;;;;;4918760;29;20055;-76
2022/04/23 01:08:02;;;;;;;15.10;5.78;;;;;;;;;;4918334;29;20044;-75
2022/04/23 01:10:31;;;;;;;7.13;6.53;;;;;;;;;;4917120;29;20377;-74
2022/04/23 01:13:02;;;;;;;18.55;6.88;;;;;;;;;;4918914;29;20404;-74
2022/04/23 01:15:33;;;;;;;7.75;7.05;;;;;;;;;;4918031;29;20048;-73
2022/04/23 01:18:03;;;;;;;7.35;6.65;;;;;;;;;;4932980;29;20099;-75
2022/04/23 01:20:31;;;;;;;8.55;7.65;;;;;;;;;;4918231;29;20048;-74
2022/04/23 01:23:00;;;;;;;10.48;9.50;;;;;;;;;;4918354;29;20044;-75
2022/04/23 01:25:31;;;;;;;10.50;9.40;;;;;;;;;;4917944;29;20083;-74
2022/04/23 01:28:00;;;;;;;11.85;10.75;;;;;;;;;;4920273;29;20056;-73
2022/04/23 01:30:29;;;;;;;13.15;11.90;;;;;;;;;;4935596;29;20531;-74
2022/04/23 01:32:57;;;;;;;11.90;10.80;;;;;;;;;;4921757;29;20052;-75
2022/04/23 01:35:27;;;;;;;13.80;12.50;;;;;;;;;;4921763;29;20048;-75
2022/04/23 01:37:56;;;;;;;14.35;12.55;;;;;;;;;;4921836;29;20058;-75
2022/04/23 01:40:24;;;;;;;13.27;12.05;;;;;;;;;;4936120;29;20477;-74
2022/04/23 01:42:53;;;;;;;13.80;12.52;;;;;;;;;;4921519;29;20086;-73
2022/04/23 01:45:21;;;;;;;12.95;11.32;;;;;;;;;;4921776;29;20403;-74
2022/04/23 01:47:48;;;;;;;13.50;12.10;;;;;;;;;;4920956;29;20067;-74
2022/04/23 01:50:16;;;;;;;12.57;11.48;;;;;;;;;;4921570;29;20059;-73
2022/04/23 01:52:45;;;;;;;13.63;12.32;;;;;;;;;;4920967;29;20127;-74
2022/04/23 01:55:13;;;;;;;14.60;13.15;;;;;;;;;;4921379;29;20044;-74
2022/04/23 01:57:42;;;;;;;15.45;14.15;;;;;;;;;;4921322;29;20492;-73
2022/04/23 02:00:15;;;;;;;13.57;11.85;;;;;;;;;;4921452;29;20075;-73
2022/04/23 02:02:44;;;;;;;13.60;12.20;;;;;;;;;;4921078;29;20076;-73
2022/04/23 02:05:14;;;;;;;15.43;12.93;;;;;;;;;;4921270;29;20055;-73
2022/04/23 02:07:44;;;;;;;14.57;11.38;;;;;;;;;;4921222;29;20052;-74
2022/04/23 02:10:15;;;;;;;13.38;12.05;;;;;;;;;;4920823;29;20488;-72
2022/04/23 02:12:47;;;;;;;11.88;10.77;;;;;;;;;;4921534;29;20107;-73
2022/04/23 02:15:16;;;;;;;12.80;11.60;;;;;;;;;;4921206;29;20474;-73
2022/04/23 02:17:45;;;;;;;20.10;12.27;;;;;;;;;;4920901;29;20503;-72
2022/04/23 02:20:15;;;;;;;15.88;13.02;;;;;;;;;;4920873;29;20052;-73
2022/04/23 02:22:47;;;;;;;15.60;13.77;;;;;;;;;;4921026;29;20132;-73
2022/04/23 02:25:19;;;;;;;14.40;13.10;;;;;;;;;;4920794;29;20056;-73
2022/04/23 02:27:50;;;;;;;15.18;13.20;;;;;;;;;;4921244;29;20055;-73
2022/04/23 02:30:20;;;;;;;16.38;14.75;;;;;;;;;;4920646;29;20595;-73
2022/04/23 02:32:49;;;;;;;15.38;13.88;;;;;;;;;;4921071;29;20237;-72
2022/04/23 02:35:19;;;;;;;17.55;15.75;;;;;;;;;;4920767;29;20056;-73
2022/04/23 02:37:49;;;;;;;16.77;15.13;;;;;;;;;;4920685;29;20088;-72
2022/04/23 02:40:16;;;;;;;16.67;15.05;;;;;;;;;;4920538;29;20056;-72
2022/04/23 02:42:45;;;;;;;15.20;13.60;;;;;;;;;;4920537;29;20072;-73
2022/04/23 02:45:15;;;;;;;16.67;15.05;;;;;;;;;;4919509;29;20048;-73
2022/04/23 02:47:50;;;;;;;16.33;14.70;;;;;;;;;;4919997;29;20748;-73
2022/04/23 02:50:26;;;;;;;16.88;15.18;;;;;;;;;;4920336;29;20052;-72
2022/04/23 02:52:55;;;;;;;16.85;15.18;;;;;;;;;;4920464;29;20413;-72
2022/04/23 02:55:25;;;;;;;19.33;16.38;;;;;;;;;;4920312;29;20075;-72
2022/04/23 02:57:53;;;;;;;18.05;16.45;;;;;;;;;;4920011;29;20056;-72
2022/04/23 03:00:22;;;;;;;17.13;15.73;;;;;;;;;;4920051;29;20502;-72
2022/04/23 03:02:52;;;;;;;16.27;14.75;;;;;;;;;;4920314;29;20074;-72
2022/04/23 03:05:21;;;;;;;15.07;13.68;;;;;;;;;;4919928;29;20091;-72
2022/04/23 03:07:50;;;;;;;14.13;12.82;;;;;;;;;;4920009;29;20047;-72
2022/04/23 03:10:20;;;;;;;16.55;15.07;;;;;;;;;;4919926;29;20052;-72
2022/04/23 03:12:48;;;;;;;14.57;13.27;;;;;;;;;;4919875;29;20083;-72
2022/04/23 03:15:17;;;;;;;12.40;10.65;;;;;;;;;;4919933;29;20104;-72
2022/04/23 03:17:46;;;;;;;12.52;11.32;;;;;;;;;;4919660;29;20048;-72
2022/04/23 03:20:16;;;;;;;10.65;9.55;;;;;;;;;;4919951;29;20083;-73
2022/04/23 03:22:45;;;;;;;12.82;10.07;;;;;;;;;;4919634;29;20055;-73
2022/04/23 03:25:13;;;;;;;10.45;9.55;;;;;;;;;;4919477;29;20056;-72
2022/04/23 03:27:42;;;;;;;12.73;10.50;;;;;;;;;;4919728;29;20059;-73
2022/04/23 03:30:10;;;;;;;10.93;9.93;;;;;;;;;;4919669;29;20059;-73
2022/04/23 03:32:39;;;;;;;9.95;9.05;;;;;;;;;;4918330;29;20083;-72
2022/04/23 03:35:08;;;;;;;12.25;10.30;;;;;;;;;;4919652;29;20047;-72
2022/04/23 03:37:41;;;;;;;10.77;9.80;;;;;;;;;;4919174;29;20052;-72
2022/04/23 03:40:12;;;;;;;13.57;9.95;;;;;;;;;;4919285;29;20059;-73
2022/04/23 03:42:41;;;;;;;11.55;10.48;;;;;;;;;;4918944;29;20060;-72
2022/04/23 03:45:09;;;;;;;12.38;11.23;;;;;;;;;;4934466;29;20063;-72
2022/04/23 03:47:44;;;;;;;12.88;11.57;;;;;;;;;;4919080;29;20099;-72
2022/04/23 03:50:13;;;;;;;11.80;10.60;;;;;;;;;;4917409;29;20139;-72
2022/04/23 03:52:41;;;;;;;14.23;12.30;;;;;;;;;;4919053;29;20059;-73
2022/04/23 03:55:11;;;;;;;14.30;11.15;;;;;;;;;;4919155;29;20464;-72
2022/04/23 03:57:43;;;;;;;13.48;12.02;;;;;;;;;;4918982;29;20051;-75
2022/04/23 04:00:14;;;;;;;13.48;12.10;;;;;;;;;;4919530;29;20043;-74
2022/04/23 04:02:44;;;;;;;10.55;9.55;;;;;;;;;;4918544;29;20040;-74
2022/04/23 04:05:14;;;;;;;10.73;9.65;;;;;;;;;;4918763;29;20052;-73
2022/04/23 04:07:47;;;;;;;11.30;8.15;;;;;;;;;;4919033;29;20048;-74
2022/04/23 04:10:20;;;;;;;6.38;5.78;;;;;;;;;;4918316;29;20052;-72
2022/04/23 04:12:49;;;;;;;6.22;5.55;;;;;;;;;;4919242;29;20468;-73
2022/04/23 04:15:20;;;;;;;7.53;6.63;;;;;;;;;;4918939;29;20052;-75
2022/04/23 04:17:53;;;;;;;8.65;7.75;;;;;;;;;;4918846;29;20063;-74
2022/04/23 04:20:21;;;;;;;10.48;8.77;;;;;;;;;;4918416;29;20067;-73
2022/04/23 04:22:50;;;;;;;9.82;8.82;;;;;;;;;;4917289;29;20044;-73
2022/04/23 04:25:19;;;;;;;11.30;10.00;;;;;;;;;;4918622;29;20127;-73
2022/04/23 04:27:47;;;;;;;10.60;9.60;;;;;;;;;;4918811;29;20490;-73
2022/04/23 04:30:16;;;;;;;9.57;8.65;;;;;;;;;;4918406;29;20071;-73
2022/04/23 04:32:50;;;;;;;13.33;9.53;;;;;;;;;;4918447;29;20048;-73
2022/04/23 04:35:18;;;;;;;12.77;8.25;;;;;;;;;;4918855;29;21036;-73
2022/04/23 04:37:48;;;;;;;9.18;7.35;;;;;;;;;;4918896;29;20055;-73
2022/04/23 04:40:18;;;;;;;9.27;8.38;;;;;;;;;;4918423;29;20115;-73
2022/04/23 04:42:47;;;;;;;10.25;9.20;;;;;;;;;;4918219;29;20056;-73
2022/04/23 04:45:15;;;;;;;12.27;9.20;;;;;;;;;;4918963;29;20484;-73
2022/04/23 04:47:45;;;;;;;9.60;8.60;;;;;;;;;;4918591;29;20040;-73
2022/04/23 04:50:14;;;;;;;9.05;8.25;;;;;;;;;;4926176;29;20142;-73
2022/04/23 04:52:42;;;;;;;8.93;8.02;;;;;;;;;;4928378;29;20058;-72
2022/04/23 04:55:11;;;;;;;8.50;7.57;;;;;;;;;;4929178;29;20123;-73
2022/04/23 04:57:41;;;;;;;9.82;8.82;;;;;;;;;;4928729;29;20419;-73
2022/04/23 05:00:11;;;;;;;11.13;8.10;;;;;;;;;;4929034;29;20059;-73
2022/04/23 05:02:40;;;;;;;8.45;7.65;;;;;;;;;;4935164;29;20048;-72
2022/04/23 05:05:08;;;;;;;9.05;8.15;;;;;;;;;;4931078;29;20059;-71
2022/04/23 05:07:39;;;;;;;9.15;7.63;;;;;;;;;;4930410;29;20058;-72
2022/04/23 05:10:09;;;;;;;9.65;8.57;;;;;;;;;;4930651;29;20492;-72
2022/04/23 05:12:38;;;;;;;9.43;8.52;;;;;;;;;;4932521;29;20046;-71
2022/04/23 05:15:07;;;;;;;12.60;11.15;;;;;;;;;;4924123;29;20052;-71
2022/04/23 05:17:39;;;;;;;11.70;10.60;;;;;;;;;;4932622;29;20403;-71
2022/04/23 05:20:08;;;;;;;11.63;10.50;;;;;;;;;;4932525;29;20051;-72
2022/04/23 05:22:36;;;;;;;10.63;9.52;;;;;;;;;;4932449;29;20068;-71
2022/04/23 05:25:06;;;;;;;10.77;9.77;;;;;;;;;;4934763;29;20051;-71
2022/04/23 05:27:35;;;;;;;9.88;9.07;;;;;;;;;;4933472;29;20385;-71
2022/04/23 05:30:04;;;;;;;12.52;9.80;;;;;;;;;;4936884;29;20051;-73
2022/04/23 05:32:32;;;;;;;11.30;10.10;;;;;;;;;;4937106;28;20043;-73
2022/04/23 05:35:02;;;;;;;10.75;9.65;;;;;;;;;;4934915;29;20046;-72
2022/04/23 05:37:31;;;;;;;10.23;9.25;;;;;;;;;;4935485;29;20048;-72
2022/04/23 05:39:58;;;;;;;11.85;10.75;;;;;;;;;;4931138;29;20147;-74
2022/04/23 05:42:27;;;;;;;11.65;10.32;;;;;;;;;;4929934;29;20047;-74
2022/04/23 05:44:56;;;;;;;10.07;9.15;;;;;;;;;;4934437;29;20544;-72
2022/04/23 05:47:24;;;;;;;11.75;9.48;;;;;;;;;;4928099;29;20052;-72
2022/04/23 05:49:51;;;;;;;11.90;10.07;;;;;;;;;;4927128;29;20107;-72
2022/04/23 05:52:20;;;;;;;11.65;9.30;;;;;;;;;;4920659;29;20134;-73
2022/04/23 05:54:48;;;;;;;12.05;10.85;;;;;;;;;;4923669;29;20052;-71
2022/04/23 05:57:17;;;;;;;12.98;10.38;;;;;;;;;;4930116;29;20046;-74
2022/04/23 05:59:45;;;;;;;11.82;10.63;;;;;;;;;;4934437;29;20060;-70
2022/04/23 06:02:13;;;;;;;14.95;12.02;;;;;;;;;;4931084;29;20048;-74
2022/04/23 06:04:45;;;;;;;15.27;12.27;;;;;;;;;;4931673;29;20492;-65
2022/04/23 06:07:13;;;;;;;14.82;13.38;;;;;;;;;;4931318;29;20051;-67
2022/04/23 06:09:42;;;;;;;15.82;12.40;;;;;;;;;;4920794;29;20495;-75
2022/04/23 06:12:11;;;;;;;14.25;12.70;;;;;;;;;;4932902;29;20047;-65
2022/04/23 06:14:39;;;;;;;13.98;12.48;;;;;;;;;;4936042;29;20110;-71
2022/04/23 06:17:11;;;;;;;13.07;11.88;;;;;;;;;;4933989;29;20059;-68
2022/04/23 06:19:40;;;;;;;13.50;12.10;;;;;;;;;;4926774;29;20044;-68
2022/04/23 06:22:09;;;;;;;12.38;11.18;;;;;;;;;;4926411;29;20455;-69
2022/04/23 06:24:38;;;;;;;15.77;13.18;;;;;;;;;;4922543;29;20036;-68
2022/04/23 06:27:06;;;;;;;15.65;12.88;;;;;;;;;;4930430;29;20056;-69
2022/04/23 06:29:40;;;;;;;13.00;11.30;;;;;;;;;;4926881;29;20451;-69
2022/04/23 06:32:09;;;;;;;12.75;11.38;;;;;;;;;;4928903;29;20062;-69
2022/04/23 06:34:40;;;;;;;13.10;11.10;;;;;;;;;;4920413;29;20135;-70
2022/04/23 06:37:08;;;;;;;12.43;11.20;;;;;;;;;;4920401;29;20803;-70
2022/04/23 06:39:37;;;;;;;12.73;11.43;;;;;;;;;;4923133;29;20049;-78
2022/04/23 06:42:06;;;;;;;12.20;10.90;;;;;;;;;;4928445;29;20052;-69
2022/04/23 06:44:39;;;;;;;11.48;9.88;;;;;;;;;;4933466;29;20087;-66
2022/04/23 06:47:09;;;;;;;12.85;11.23;;;;;;;;;;4938434;29;20093;-66
2022/04/23 06:49:37;;;;;;;14.95;11.55;;;;;;;;;;4939374;29;20122;-63
2022/04/23 06:52:07;;;;;;;13.05;10.85;;;;;;;;;;4938407;29;20048;-66
2022/04/23 06:54:35;;;;;;;11.93;10.73;;;;;;;;;;4930770;29;20052;-67
2022/04/23 06:57:04;;;;;;;12.88;10.70;;;;;;;;;;4938623;29;20097;-67
2022/04/23 06:59:33;;;;;;;14.75;12.05;;;;;;;;;;4933490;29;20051;-67
2022/04/23 07:02:02;;;;;;;11.60;9.43;;;;;;;;;;4917178;29;20056;-67
2022/04/23 07:04:31;;;;;;;14.88;11.57;;;;;;;;;;4915635;29;20135;-67
2022/04/23 07:07:00;;;;;;;13.45;11.80;;;;;;;;;;4917911;29;20075;-67
2022/04/23 07:09:31;;;;;;;12.95;11.60;;;;;;;;;;4917816;29;20116;-67
2022/04/23 07:11:59;;;;;;;18.60;13.10;;;;;;;;;;4917965;29;20134;-67
2022/04/23 07:14:28;;;;;;;17.73;14.90;;;;;;;;;;4917473;29;20051;-67
2022/04/23 07:16:57;;;;;;;18.15;14.57;;;;;;;;;;4918035;29;20052;-67
2022/04/23 07:19:27;;;;;;;21.38;17.70;;;;;;;;;;4923419;29;20047;-67
2022/04/23 07:21:56;;;;;;;23.23;20.77;;;;;;;;;;4935888;29;20067;-67
2022/04/23 07:24:27;;;;;;;24.35;21.45;;;;;;;;;;4937386;29;20078;-67
2022/04/23 07:26:55;;;;;;;22.00;17.95;;;;;;;;;;4937426;29;20059;-67
2022/04/23 07:29:24;;;;;;;15.13;13.52;;;;;;;;;;4937843;29;20084;-67
2022/04/23 07:31:53;;;;;;;15.48;13.43;;;;;;;;;;4937716;29;20401;-66
2022/04/23 07:40:14;;;;;;;14.57;13.05;;;;;;;;;;4938080;29;20110;-66
2022/04/23 07:42:44;;;;;;;18.88;12.65;;;;;;;;;;4936721;29;20135;-67
2022/04/23 07:45:12;;;;;;;16.85;12.82;;;;;;;;;;4937646;29;20056;-67
2022/04/23 07:47:42;;;;;;;17.75;15.90;;;;;;;;;;4938102;29;20058;-66
2022/04/23 07:50:10;;;;;;;18.75;16.75;;;;;;;;;;4938074;29;20054;-67
2022/04/23 07:52:42;;;;;;;22.83;18.63;;;;;;;;;;4937956;29;20051;-67
2022/04/23 07:55:09;;;;;;;20.58;18.30;;;;;;;;;;4937952;29;20088;-67
2022/04/23 07:57:39;;;;;;;23.33;17.65;;;;;;;;;;4937599;29;20063;-67
2022/04/23 08:00:08;;;;;;;18.02;15.38;;;;;;;;;;4937855;29;20066;-67
2022/04/23 08:02:37;;;;;;;18.08;14.65;;;;;;;;;;4937939;29;20051;-67
2022/04/23 08:05:06;;;;;;;17.20;12.70;;;;;;;;;;4937742;29;20055;-67
2022/04/23 08:07:35;;;;;;;13.02;11.20;;;;;;;;;;4937879;29;20052;-67
2022/04/23 08:10:03;;;;;;;11.80;8.90;;;;;;;;;;4937443;29;20040;-67
2022/04/23 08:12:35;;;;;;;22.00;10.70;;;;;;;;;;4937907;29;20058;-66
2022/04/23 08:15:05;;;;;;;12.75;7.90;;;;;;;;;;4937512;29;20941;-67
2022/04/23 08:17:33;;;;;;;8.13;6.40;;;;;;;;;;4937646;29;20172;-67
2022/04/23 08:20:03;;;;;;;12.05;6.25;;;;;;;;;;4937598;29;20062;-66
2022/04/23 08:22:32;;;;;;;6.30;5.70;;;;;;;;;;4937414;29;20110;-66
2022/04/23 08:24:59;;;;;;;6.07;5.40;;;;;;;;;;4937842;29;20050;-66
2022/04/23 08:27:31;;;;;;;6.93;5.97;;;;;;;;;;4937986;29;20055;-66
2022/04/23 08:32:48;;;;;;;5.80;5.25;;;;;;;;;;4937027;29;20100;-66
2022/04/23 08:35:17;;;;;;;6.57;4.88;;;;;;;;;;4937530;29;20130;-66
2022/04/23 08:37:46;;;;;;;5.85;4.80;;;;;;;;;;4936930;29;20055;-66
2022/04/23 08:40:14;;;;;;;6.50;4.93;;;;;;;;;;4937147;29;20055;-66
2022/04/23 08:42:43;;;;;;;5.57;4.80;;;;;;;;;;4936833;29;20055;-66
2022/04/23 08:45:12;;;;;;;7.50;5.85;;;;;;;;;;4936297;29;20047;-66
2022/04/23 08:47:45;;;;;;;8.95;5.30;;;;;;;;;;4936889;29;20094;-66
2022/04/23 08:50:15;;;;;;;8.00;5.07;;;;;;;;;;4937749;29;20083;-66
2022/04/23 08:52:43;;;;;;;8.82;5.60;;;;;;;;;;4937124;29;20044;-65
2022/04/23 08:55:14;;;;;;;6.05;5.47;;;;;;;;;;4937487;29;20059;-65
2022/04/23 08:57:44;;;;;;;4.78;4.30;;;;;;;;;;4937313;29;20048;-65
2022/04/23 09:00:15;;;;;;;6.50;5.30;;;;;;;;;;4936977;29;20040;-65
2022/04/23 09:02:46;;;;;;;5.68;4.47;;;;;;;;;;4937488;29;20052;-65
2022/04/23 09:05:15;;;;;;;9.48;4.47;;;;;;;;;;4936950;29;20075;-65
2022/04/23 09:07:53;;;;;;;7.13;5.20;;;;;;;;;;4936944;29;20079;-65
2022/04/23 09:10:51;;;;;;;5.38;4.80;;;;;;;;;;4937400;29;20046;-65
2022/04/23 09:13:27;;;;;;;9.30;4.75;;;;;;;;;;4937454;29;20046;-65
2022/04/23 09:24:46;;;;;;;6.95;5.97;;;;;;;;;;4937827;29;20036;-65
2022/04/23 09:27:15;;;;;;;10.65;6.15;;;;;;;;;;4937242;29;20107;-65
2022/04/23 09:30:15;;;;;;;9.75;5.47;;;;;;;;;;4936628;29;20060;-66
2022/04/23 09:33:16;;;;;;;8.25;6.18;;;;;;;;;;4936579;29;20083;-65
2022/04/23 09:35:59;;;;;;;6.28;5.68;;;;;;;;;;4936542;29;20062;-64
2022/04/23 09:38:27;;;;;;;6.82;5.63;;;;;;;;;;4936521;29;20388;-65
2022/04/23 09:40:56;;;;;;;7.25;5.13;;;;;;;;;;4937082;29;20051;-65
2022/04/23 09:43:26;;;;;;;8.90;5.60;;;;;;;;;;4936542;29;20094;-64
2022/04/23 09:46:03;;;;;;;5.82;5.20;;;;;;;;;;4937596;29;20111;-64
2022/04/23 09:48:43;;;;;;;7.30;5.63;;;;;;;;;;4938672;29;20055;-65
2022/04/23 09:51:26;;;;;;;4.65;4.13;;;;;;;;;;4940727;29;20056;-65
2022/04/23 09:53:55;;;;;;;4.30;3.90;;;;;;;;;;4940604;29;20186;-64
2022/04/23 09:56:25;;;;;;;4.32;3.60;;;;;;;;;;4940560;29;20058;-65
2022/04/23 09:58:54;;;;;;;4.25;3.65;;;;;;;;;;4939769;29;20144;-64
2022/04/23 10:01:24;;;;;;;4.55;3.45;;;;;;;;;;4940400;29;20503;-65
2022/04/23 10:03:59;;;;;;;5.00;3.47;;;;;;;;;;4940251;29;20086;-65
2022/04/23 10:06:35;;;;;;;4.53;3.78;;;;;;;;;;4940231;29;20047;-65
2022/04/23 10:09:06;;;;;;;9.43;3.20;;;;;;;;;;4940112;29;20093;-65
2022/04/23 10:11:37;;;;;;;5.35;3.20;;;;;;;;;;4940538;29;20048;-65
2022/04/23 10:14:06;;;;;;;7.65;4.13;;;;;;;;;;4938809;29;20051;-65
2022/04/23 10:16:36;;;;;;;3.28;2.97;;;;;;;;;;4939924;29;20060;-65
2022/04/23 10:19:03;;;;;;;6.68;3.35;;;;;;;;;;4940191;29;20420;-65
2022/04/23 10:21:48;;;;;;;3.65;3.35;;;;;;;;;;4939480;29;20126;-65
2022/04/23 10:24:22;;;;;;;;;;;;;;;;;;4939095;29;20084;-65
2022/04/23 10:27:07;;;;;;;8.25;2.97;;;;;;;;;;4939881;29;19923;-65
2022/04/23 10:29:50;;;;;;;2.75;2.55;;;;;;;;;;4940044;29;20059;-65
2022/04/23 10:32:22;;;;;;;3.20;2.60;;;;;;;;;;4939410;29;20479;-64
2022/04/23 10:34:51;;;;;;;4.35;2.35;;;;;;;;;;4939629;29;20083;-65
2022/04/23 10:37:27;;;;;;;3.95;2.05;;;;;;;;;;4938673;29;20055;-65
2022/04/23 10:39:54;;;;;;;4.78;2.13;;;;;;;;;;4938900;29;20047;-65
2022/04/23 10:42:25;;;;;;;3.53;2.17;;;;;;;;;;4937710;29;20062;-63
2022/04/23 10:44:56;;;;;;;4.05;2.45;;;;;;;;;;4939271;29;20046;-64
2022/04/23 10:47:39;;;;;;;1.90;1.77;;;;;;;;;;4939252;29;20055;-63
2022/04/23 10:50:13;;;;;;;1.40;1.30;;;;;;;;;;4938376;29;20047;-65
2022/04/23 10:52:43;;;;;;;1.77;1.65;;;;;;;;;;4928928;29;20055;-66
2022/04/23 10:55:12;;;;;;;3.97;1.80;;;;;;;;;;4924155;29;20455;-65
2022/04/23 10:57:47;;;;;;;2.10;1.63;;;;;;;;;;4922206;29;20048;-65
2022/04/23 11:00:19;;;;;;;5.72;1.50;;;;;;;;;;4933159;29;20078;-65
2022/04/23 11:02:53;;;;;;;1.60;1.50;;;;;;;;;;4929086;29;20055;-65
2022/04/23 11:14:07;;;;;;;5.35;1.73;;;;;;;;;;4939171;29;20058;-63
2022/04/23 11:16:36;;;;;;;1.88;1.73;;;;;;;;;;4938962;29;20595;-63
2022/04/23 11:19:07;;;;;;;5.60;2.03;;;;;;;;;;4938323;29;20518;-63
2022/04/23 11:21:35;;;;;;;9.05;3.20;;;;;;;;;;4938548;29;20089;-64
2022/04/23 11:24:03;;;;;;;3.92;2.20;;;;;;;;;;4925745;29;20048;-64
2022/04/23 11:26:46;;;;;;;2.30;1.70;;;;;;;;;;4932911;29;20044;-64
2022/04/23 11:29:15;;;;;;;3.78;1.60;;;;;;;;;;4929240;29;20059;-64
2022/04/23 11:32:10;;;;;;;12.90;2.90;;;;;;;;;;4934009;29;20399;-64
2022/04/23 11:34:39;;;;;;;1.80;1.48;;;;;;;;;;4934355;29;20389;-65
2022/04/23 11:37:11;;;;;;;5.22;1.83;;;;;;;;;;4927666;29;20127;-65
2022/04/23 11:39:39;;;;;;;2.28;1.80;;;;;;;;;;4926681;29;20039;-73
2022/04/23 11:42:08;;;;;;;1.77;1.67;;;;;;;;;;4931248;29;20054;-65
2022/04/23 11:44:46;;;;;;;3.80;1.83;;;;;;;;;;4928553;29;20050;-67
2022/04/23 11:47:17;;;;;;;5.65;2.30;;;;;;;;;;4931418;29;20048;-67
2022/04/23 11:49:48;;;;;;;4.13;1.98;;;;;;;;;;4932004;29;20534;-67
2022/04/23 11:52:16;;;;;;;4.40;2.00;;;;;;;;;;4930547;29;20052;-68
2022/04/23 11:54:45;;;;;;;2.30;2.10;;;;;;;;;;4931010;29;20044;-68
2022/04/23 11:57:16;;;;;;;1.80;1.70;;;;;;;;;;4931748;29;20062;-68
2022/04/23 12:00:06;;;;;;;2.33;1.98;;;;;;;;;;4926904;29;20071;-69
2022/04/23 12:02:34;;;;;;;4.40;2.00;;;;;;;;;;4933551;29;20106;-69
2022/04/23 12:05:03;;;;;;;4.38;2.22;;;;;;;;;;4929684;29;20048;-69
2022/04/23 12:07:35;;;;;;;3.90;2.05;;;;;;;;;;4931674;29;20059;-69
2022/04/23 12:10:04;;;;;;;2.10;1.30;;;;;;;;;;4935133;29;20047;-69
2022/04/23 12:12:34;;;;;;;1.77;1.65;;;;;;;;;;4922198;29;20122;-68
2022/04/23 12:15:06;;;;;;;1.75;1.60;;;;;;;;;;4923481;29;20111;-69
2022/04/23 12:17:47;;;;;;;2.60;1.75;;;;;;;;;;4932055;29;20555;-70
2022/04/23 12:20:17;;;;;;;2.70;2.10;;;;;;;;;;4924357;29;20048;-69
2022/04/23 12:23:03;;;;;;;5.78;1.80;;;;;;;;;;4932391;29;20525;-69
2022/04/23 12:25:32;;;;;;;2.63;2.28;;;;;;;;;;4930313;29;20075;-67
2022/04/23 12:42:21;;;;;;;3.03;1.73;;;;;;;;;;4928728;29;20107;-67
2022/04/23 12:44:52;;;;;;;1.95;1.52;;;;;;;;;;4923626;29;20111;-67
2022/04/23 12:47:36;;;;;;;2.25;1.70;;;;;;;;;;4927124;29;20036;-66
2022/04/23 12:50:07;;;;;;;5.63;2.33;;;;;;;;;;4927596;29;20055;-66
2022/04/23 12:52:43;;;;;;;3.08;1.58;;;;;;;;;;4930813;29;20041;-66
2022/04/23 12:55:17;;;;;;;6.15;3.05;;;;;;;;;;4921757;29;20595;-66
2022/04/23 12:57:53;;;;;;;2.22;1.40;;;;;;;;;;4929504;29;20048;-65
2022/04/23 13:00:24;;;;;;;2.78;1.88;;;;;;;;;;4922107;29;20076;-67
2022/04/23 13:02:56;;;;;;;3.88;3.20;;;;;;;;;;4922853;29;20077;-67
2022/04/23 13:05:24;;;;;;;5.05;2.15;;;;;;;;;;4936931;29;20044;-67
2022/04/23 13:10:39;;;;;;;2.83;1.90;;;;;;;;;;4937497;29;20058;-67
2022/04/23 13:13:07;;;;;;;2.67;1.60;;;;;;;;;;4937951;29;20059;-67
2022/04/23 13:15:35;;;;;;;1.27;1.17;;;;;;;;;;4937208;29;20072;-67
2022/04/23 13:18:06;;;;;;;4.85;1.80;;;;;;;;;;4937677;29;20059;-67
2022/04/23 13:20:35;;;;;;;3.05;1.60;;;;;;;;;;4937731;29;20075;-66
2022/04/23 13:23:03;;;;;;;2.75;1.75;;;;;;;;;;4930257;29;20492;-66
2022/04/23 13:25:31;;;;;;;1.60;1.50;;;;;;;;;;4921958;29;20526;-66
2022/04/23 13:28:00;;;;;;;4.05;2.05;;;;;;;;;;4921710;29;20432;-67
2022/04/23 13:30:29;;;;;;;4.05;1.55;;;;;;;;;;4922085;29;20556;-67
2022/04/23 13:32:58;;;;;;;4.47;2.58;;;;;;;;;;4922301;29;20448;-66
2022/04/23 13:35:26;;;;;;;2.00;1.80;;;;;;;;;;4920172;29;20100;-66
2022/04/23 13:37:55;;;;;;;5.93;2.78;;;;;;;;;;4921553;29;20416;-66
2022/04/23 13:40:25;;;;;;;3.22;2.55;;;;;;;;;;4921598;29;20060;-66
2022/04/23 13:42:52;;;;;;;5.43;1.70;;;;;;;;;;4921433;29;20087;-66
2022/04/23 13:45:21;;;;;;;2.00;1.90;;;;;;;;;;4921467;29;20412;-65
2022/04/23 13:47:50;;;;;;;3.47;1.95;;;;;;;;;;4921802;29;20048;-66
2022/04/23 13:50:19;;;;;;;3.30;2.15;;;;;;;;;;4921417;29;20040;-66
2022/04/23 13:52:48;;;;;;;3.10;1.55;;;;;;;;;;4921539;29;20052;-66
2022/04/23 13:55:16;;;;;;;2.75;1.90;;;;;;;;;;4923685;29;20052;-66
2022/04/23 13:57:44;;;;;;;4.35;1.90;;;;;;;;;;4929124;29;20055;-65
2022/04/23 14:00:12;;;;;;;1.95;1.75;;;;;;;;;;4930218;29;20619;-66
2022/04/23 14:11:02;;;;;;;3.15;2.08;;;;;;;;;;4927742;29;20083;-65
2022/04/23 14:13:33;;;;;;;3.00;1.90;;;;;;;;;;4932246;29;20495;-64
2022/04/23 14:16:04;;;;;;;4.78;3.20;;;;;;;;;;4931476;29;20047;-64
2022/04/23 14:18:32;;;;;;;2.80;1.90;;;;;;;;;;4929160;29;20087;-65
2022/04/23 14:21:00;;;;;;;3.20;1.90;;;;;;;;;;4925796;29;20574;-65
2022/04/23 14:23:28;;;;;;;7.45;3.05;;;;;;;;;;4939536;29;20070;-65
2022/04/23 14:25:57;;;;;;;4.93;2.13;;;;;;;;;;4940050;28;20060;-65
2022/04/23 14:28:25;;;;;;;4.57;2.03;;;;;;;;;;4919036;29;20052;-65
2022/04/23 14:30:54;;;;;;;3.72;2.85;;;;;;;;;;4920592;29;20052;-66
2022/04/23 14:33:23;;;;;;;6.68;2.17;;;;;;;;;;4920240;29;20056;-65
2022/04/23 14:35:53;;;;;;;5.43;2.45;;;;;;;;;;4922966;29;20059;-66
2022/04/23 14:38:21;;;;;;;3.15;2.60;;;;;;;;;;4920968;29;20044;-64
2022/04/23 14:40:50;;;;;;;3.97;2.15;;;;;;;;;;4919578;29;20583;-66
2022/04/23 14:43:18;;;;;;;5.45;2.90;;;;;;;;;;4928830;29;20104;-65
2022/04/23 14:45:47;;;;;;;2.80;2.53;;;;;;;;;;4918782;29;20555;-65
2022/04/23 14:48:16;;;;;;;5.75;2.53;;;;;;;;;;4932213;29;20056;-65
2022/04/23 14:53:31;;;;;;;6.30;2.08;;;;;;;;;;4937814;29;20047;-66
2022/04/23 14:55:59;;;;;;;8.63;2.53;;;;;;;;;;4938003;29;20052;-64
2022/04/23 14:58:27;;;;;;;3.75;2.38;;;;;;;;;;4939553;29;20411;-65
2022/04/23 15:00:56;;;;;;;3.13;2.10;;;;;;;;;;4938642;29;20059;-66
2022/04/23 15:03:24;;;;;;;5.10;3.25;;;;;;;;;;4934847;29;20112;-66
2022/04/23 15:05:52;;;;;;;5.32;3.47;;;;;;;;;;4938036;29;20197;-66
2022/04/23 15:08:21;;;;;;;8.55;3.13;;;;;;;;;;4933421;29;20075;-66
2022/04/23 15:10:50;;;;;;;3.92;2.60;;;;;;;;;;4928250;29;20063;-66
2022/04/23 15:13:18;;;;;;;5.82;2.60;;;;;;;;;;4930106;29;20067;-66
2022/04/23 15:15:48;;;;;;;5.38;2.35;;;;;;;;;;4928625;29;20441;-65
2022/04/23 15:18:17;;;;;;;6.13;2.30;;;;;;;;;;4925891;29;20058;-66
2022/04/23 15:20:45;;;;;;;6.47;2.35;;;;;;;;;;4932382;29;20455;-66
2022/04/23 15:23:14;;;;;;;4.70;2.50;;;;;;;;;;4923550;29;20036;-65
2022/04/23 15:25:44;;;;;;;4.50;2.10;;;;;;;;;;4928583;29;20492;-65
2022/04/23 15:28:14;;;;;;;8.20;2.90;;;;;;;;;;4936159;29;20059;-65
2022/04/23 15:30:43;;;;;;;2.78;2.42;;;;;;;;;;4928365;29;20075;-66
2022/04/23 15:33:14;;;;;;;7.70;2.72;;;;;;;;;;4927485;29;20076;-65
2022/04/23 15:35:43;;;;;;;4.95;2.95;;;;;;;;;;4930882;29;20533;-65
2022/04/23 15:38:11;;;;;;;5.13;3.13;;;;;;;;;;4933454;29;20046;-65
2022/04/23 15:40:40;;;;;;;6.53;3.97;;;;;;;;;;4921408;29;20060;-65
2022/04/23 15:43:10;;;;;;;6.38;2.92;;;;;;;;;;4926621;29;20063;-66
2022/04/23 15:45:39;;;;;;;5.47;3.05;;;;;;;;;;4928863;29;20058;-65